sensor_id;sensor_type;location;lat;lon;timestamp;pressure;altitude;pressure_sealevel;temperature;humidity
32243;BME280;18731;42.830;24.390;2023-03-13T04:02:59;94908.88;;;-1.33;68.83
32243;BME280;18731;42.830;24.390;2023-03-13T04:05:25;94918.94;;;-1.24;68.63
32243;BME280;18731;42.830;24.390;2023-03-13T04:07:51;94924.66;;;-1.27;68.36
32243;BME280;18731;42.830;24.390;2023-03-13T04:10:16;94920.47;;;-1.28;68.64
32243;BME280;18731;42.830;24.390;2023-03-13T04:12:42;94919.44;;;-1.27;68.51
32243;BME280;18731;42.830;24.390;2023-03-13T04:15:09;94937.63;;;-1.38;68.67
32243;BME280;18731;42.830;24.390;2023-03-13T04:17:35;94939.22;;;-1.37;68.82
32243;BME280;18731;42.830;24.390;2023-03-13T04:20:00;94942.44;;;-1.30;68.15
32243;BME280;18731;42.830;24.390;2023-03-13T04:22:26;94935.72;;;-1.42;68.50
32243;BME280;18731;42.830;24.390;2023-03-13T04:24:52;94945.34;;;-1.48;69.04
32243;BME280;18731;42.830;24.390;2023-03-13T04:27:17;94951.75;;;-1.39;69.03
32243;BME280;18731;42.830;24.390;2023-03-13T04:29:43;94957.59;;;-1.32;68.83
32243;BME280;18731;42.830;24.390;2023-03-13T04:32:09;94960.63;;;-1.40;69.13
32243;BME280;18731;42.830;24.390;2023-03-13T04:34:35;94950.03;;;-1.50;68.80
32243;BME280;18731;42.830;24.390;2023-03-13T04:37:01;94961.59;;;-1.46;68.37
32243;BME280;18731;42.830;24.390;2023-03-13T04:39:27;94968.19;;;-1.43;68.42
32243;BME280;18731;42.830;24.390;2023-03-13T04:41:54;94956.16;;;-1.61;68.83
32243;BME280;18731;42.830;24.390;2023-03-13T04:44:21;94970.97;;;-1.50;68.77
32243;BME280;18731;42.830;24.390;2023-03-13T04:46:47;94979.13;;;-1.46;68.66
32243;BME280;18731;42.830;24.390;2023-03-13T04:49:13;94965.25;;;-1.47;68.91
32243;BME280;18731;42.830;24.390;2023-03-13T04:51:44;94974.28;;;-1.38;68.26
32243;BME280;18731;42.830;24.390;2023-03-13T04:54:10;94975.88;;;-1.37;68.09
32243;BME280;18731;42.830;24.390;2023-03-13T04:56:36;94982.69;;;-1.36;68.57
32243;BME280;18731;42.830;24.390;2023-03-13T04:59:02;94990.84;;;-1.32;68.30
32243;BME280;18731;42.830;24.390;2023-03-13T05:01:28;94985.84;;;-1.34;67.93
32243;BME280;18731;42.830;24.390;2023-03-13T05:03:54;94987.13;;;-1.36;68.12
32243;BME280;18731;42.830;24.390;2023-03-13T05:06:19;95005.78;;;-1.33;68.29
32243;BME280;18731;42.830;24.390;2023-03-13T05:08:45;94997.13;;;-1.33;68.87
32243;BME280;18731;42.830;24.390;2023-03-13T05:11:11;94994.28;;;-1.32;68.69
32243;BME280;18731;42.830;24.390;2023-03-13T05:13:36;94995.38;;;-1.27;68.98
32243;BME280;18731;42.830;24.390;2023-03-13T05:16:02;94991.03;;;-1.39;69.34
32243;BME280;18731;42.830;24.390;2023-03-13T05:18:28;95009.63;;;-1.18;68.64
32243;BME280;18731;42.830;24.390;2023-03-13T05:20:54;95008.69;;;-1.12;68.92
32243;BME280;18731;42.830;24.390;2023-03-13T05:23:19;95003.88;;;-0.99;68.10
32243;BME280;18731;42.830;24.390;2023-03-13T05:25:45;95003.50;;;-0.85;68.77
32243;BME280;18731;42.830;24.390;2023-03-13T05:28:11;94992.91;;;-0.74;68.87
32243;BME280;18731;42.830;24.390;2023-03-13T05:30:36;94996.19;;;-0.61;68.90
32243;BME280;18731;42.830;24.390;2023-03-13T05:33:02;94998.75;;;-0.45;68.56
32243;BME280;18731;42.830;24.390;2023-03-13T05:35:28;95008.66;;;-0.25;68.02
32243;BME280;18731;42.830;24.390;2023-03-13T05:37:54;95008.25;;;-0.12;67.28
32243;BME280;18731;42.830;24.390;2023-03-13T05:40:20;95014.75;;;0.08;66.93
32243;BME280;18731;42.830;24.390;2023-03-13T05:42:45;94995.38;;;0.14;66.80
32243;BME280;18731;42.830;24.390;2023-03-13T05:45:12;95010.69;;;0.22;66.38
32243;BME280;18731;42.830;24.390;2023-03-13T05:47:38;95014.38;;;0.26;66.05
32243;BME280;18731;42.830;24.390;2023-03-13T05:50:05;95013.47;;;0.42;65.89
32243;BME280;18731;42.830;24.390;2023-03-13T05:52:32;95009.66;;;0.60;65.66
32243;BME280;18731;42.830;24.390;2023-03-13T05:54:57;95020.88;;;0.87;65.42
32243;BME280;18731;42.830;24.390;2023-03-13T05:57:23;95009.13;;;1.00;64.11
32243;BME280;18731;42.830;24.390;2023-03-13T05:59:49;95026.09;;;1.29;63.54
32243;BME280;18731;42.830;24.390;2023-03-13T06:02:15;95031.97;;;1.52;62.96
32243;BME280;18731;42.830;24.390;2023-03-13T06:04:41;95006.72;;;1.51;63.36
32243;BME280;18731;42.830;24.390;2023-03-13T06:07:07;95022.03;;;1.69;62.38
32243;BME280;18731;42.830;24.390;2023-03-13T06:09:32;95017.88;;;1.93;62.04
32243;BME280;18731;42.830;24.390;2023-03-13T06:11:58;95022.13;;;2.15;61.24
32243;BME280;18731;42.830;24.390;2023-03-13T06:14:24;95027.66;;;2.13;60.61
32243;BME280;18731;42.830;24.390;2023-03-13T06:16:50;95011.84;;;2.13;60.96
32243;BME280;18731;42.830;24.390;2023-03-13T06:19:15;95029.00;;;2.51;60.34
32243;BME280;18731;42.830;24.390;2023-03-13T06:21:41;95006.84;;;2.37;59.11
32243;BME280;18731;42.830;24.390;2023-03-13T06:24:07;95023.47;;;2.78;59.46
32243;BME280;18731;42.830;24.390;2023-03-13T06:26:33;95026.34;;;2.92;58.73
32243;BME280;18731;42.830;24.390;2023-03-13T06:28:59;95023.97;;;3.01;58.61
32243;BME280;18731;42.830;24.390;2023-03-13T06:31:24;95015.19;;;3.26;58.44
32243;BME280;18731;42.830;24.390;2023-03-13T06:33:53;95044.38;;;3.54;58.03
32243;BME280;18731;42.830;24.390;2023-03-13T06:36:20;95040.28;;;3.87;56.92
32243;BME280;18731;42.830;24.390;2023-03-13T06:38:46;95025.13;;;4.08;56.22
32243;BME280;18731;42.830;24.390;2023-03-13T06:41:12;95035.56;;;4.29;55.33
32243;BME280;18731;42.830;24.390;2023-03-13T06:43:38;95019.88;;;4.42;55.35
32243;BME280;18731;42.830;24.390;2023-03-13T06:46:07;95018.69;;;4.59;54.59
32243;BME280;18731;42.830;24.390;2023-03-13T06:48:33;95017.16;;;4.81;54.43
32243;BME280;18731;42.830;24.390;2023-03-13T06:50:59;95015.22;;;4.92;54.75
32243;BME280;18731;42.830;24.390;2023-03-13T06:53:25;95022.22;;;5.36;53.32
32243;BME280;18731;42.830;24.390;2023-03-13T06:55:50;95020.41;;;5.55;51.91
32243;BME280;18731;42.830;24.390;2023-03-13T06:58:17;95012.66;;;5.82;51.66
32243;BME280;18731;42.830;24.390;2023-03-13T07:00:43;95009.13;;;6.11;51.68
32243;BME280;18731;42.830;24.390;2023-03-13T07:03:11;94985.56;;;5.91;51.82
32243;BME280;18731;42.830;24.390;2023-03-13T07:05:38;95009.50;;;6.23;52.13
32243;BME280;18731;42.830;24.390;2023-03-13T07:08:04;95002.81;;;6.44;50.75
32243;BME280;18731;42.830;24.390;2023-03-13T07:10:30;94995.78;;;6.54;49.19
32243;BME280;18731;42.830;24.390;2023-03-13T07:12:56;94985.97;;;7.00;46.16
32243;BME280;18731;42.830;24.390;2023-03-13T07:15:22;94968.28;;;7.37;47.47
32243;BME280;18731;42.830;24.390;2023-03-13T07:17:48;94965.13;;;7.62;47.92
32243;BME280;18731;42.830;24.390;2023-03-13T07:20:13;94957.94;;;7.77;46.35
32243;BME280;18731;42.830;24.390;2023-03-13T07:22:39;94945.00;;;7.97;46.81
32243;BME280;18731;42.830;24.390;2023-03-13T07:25:05;94930.09;;;8.46;44.39
32243;BME280;18731;42.830;24.390;2023-03-13T07:27:31;94929.81;;;8.79;43.84
32243;BME280;18731;42.830;24.390;2023-03-13T07:29:57;94924.94;;;9.12;41.05
32243;BME280;18731;42.830;24.390;2023-03-13T07:32:22;94927.94;;;9.19;41.72
32243;BME280;18731;42.830;24.390;2023-03-13T07:34:48;94930.16;;;9.25;42.45
32243;BME280;18731;42.830;24.390;2023-03-13T07:37:15;94909.69;;;8.95;42.28
32243;BME280;18731;42.830;24.390;2023-03-13T07:39:49;94922.94;;;9.17;40.20
32243;BME280;18731;42.830;24.390;2023-03-13T07:42:15;94928.28;;;8.86;41.88
32243;BME280;18731;42.830;24.390;2023-03-13T07:44:40;94933.06;;;9.07;41.11
32243;BME280;18731;42.830;24.390;2023-03-13T07:47:06;94922.47;;;9.24;39.94
32243;BME280;18731;42.830;24.390;2023-03-13T07:49:32;94928.25;;;9.17;40.85
32243;BME280;18731;42.830;24.390;2023-03-13T07:52:00;94922.16;;;9.17;41.97
32243;BME280;18731;42.830;24.390;2023-03-13T07:54:25;94924.66;;;9.22;41.58
32243;BME280;18731;42.830;24.390;2023-03-13T07:56:51;94931.63;;;9.40;40.42
32243;BME280;18731;42.830;24.390;2023-03-13T07:59:17;94918.78;;;9.42;39.71
32243;BME280;18731;42.830;24.390;2023-03-13T08:01:42;94912.03;;;9.45;39.81
32243;BME280;18731;42.830;24.390;2023-03-13T08:04:12;94921.66;;;9.72;39.96
32243;BME280;18731;42.830;24.390;2023-03-13T08:06:38;94925.63;;;10.00;40.38
32243;BME280;18731;42.830;24.390;2023-03-13T08:09:05;94924.38;;;10.06;39.57
32243;BME280;18731;42.830;24.390;2023-03-13T08:11:31;94925.16;;;10.15;39.81
32243;BME280;18731;42.830;24.390;2023-03-13T08:13:56;94916.25;;;10.28;40.92
32243;BME280;18731;42.830;24.390;2023-03-13T08:16:27;94909.31;;;10.19;38.08
32243;BME280;18731;42.830;24.390;2023-03-13T08:18:55;94903.19;;;10.36;39.53
32243;BME280;18731;42.830;24.390;2023-03-13T08:21:29;94918.09;;;10.71;38.48
32243;BME280;18731;42.830;24.390;2023-03-13T08:23:57;94911.03;;;10.58;38.16
32243;BME280;18731;42.830;24.390;2023-03-13T08:26:26;94901.13;;;10.67;38.40
32243;BME280;18731;42.830;24.390;2023-03-13T08:28:55;94892.25;;;11.01;37.69
32243;BME280;18731;42.830;24.390;2023-03-13T08:31:24;94895.16;;;11.17;36.41
32243;BME280;18731;42.830;24.390;2023-03-13T08:33:50;94883.75;;;11.37;35.84
32243;BME280;18731;42.830;24.390;2023-03-13T08:36:24;94887.97;;;11.68;36.74
32243;BME280;18731;42.830;24.390;2023-03-13T08:38:51;94887.41;;;11.83;37.02
32243;BME280;18731;42.830;24.390;2023-03-13T08:41:20;94877.78;;;11.61;35.32
32243;BME280;18731;42.830;24.390;2023-03-13T08:43:46;94875.03;;;11.78;35.34
32243;BME280;18731;42.830;24.390;2023-03-13T08:46:14;94865.28;;;11.74;35.18
32243;BME280;18731;42.830;24.390;2023-03-13T08:48:40;94867.59;;;11.84;35.11
32243;BME280;18731;42.830;24.390;2023-03-13T08:51:10;94867.00;;;11.99;35.57
32243;BME280;18731;42.830;24.390;2023-03-13T08:53:37;94858.38;;;12.14;33.86
32243;BME280;18731;42.830;24.390;2023-03-13T08:56:04;94865.50;;;12.43;34.13
32243;BME280;18731;42.830;24.390;2023-03-13T08:58:30;94870.41;;;12.74;34.09
32243;BME280;18731;42.830;24.390;2023-03-13T09:01:04;94868.41;;;12.83;32.83
32243;BME280;18731;42.830;24.390;2023-03-13T09:03:31;94869.31;;;12.87;32.56
32243;BME280;18731;42.830;24.390;2023-03-13T09:06:01;94869.13;;;12.60;32.39
32243;BME280;18731;42.830;24.390;2023-03-13T09:08:28;94865.91;;;12.66;33.83
32243;BME280;18731;42.830;24.390;2023-03-13T09:11:00;94860.31;;;12.59;34.41
32243;BME280;18731;42.830;24.390;2023-03-13T09:13:26;94863.94;;;12.42;32.68
32243;BME280;18731;42.830;24.390;2023-03-13T09:15:58;94861.78;;;12.69;34.06
32243;BME280;18731;42.830;24.390;2023-03-13T09:18:25;94859.59;;;12.83;32.43
32243;BME280;18731;42.830;24.390;2023-03-13T09:20:51;94856.56;;;13.17;35.24
32243;BME280;18731;42.830;24.390;2023-03-13T09:23:16;94852.81;;;13.71;33.88
32243;BME280;18731;42.830;24.390;2023-03-13T09:25:42;94858.13;;;13.95;32.65
32243;BME280;18731;42.830;24.390;2023-03-13T09:28:08;94841.94;;;14.20;32.85
32243;BME280;18731;42.830;24.390;2023-03-13T09:30:34;94850.88;;;14.24;31.70
32243;BME280;18731;42.830;24.390;2023-03-13T09:32:59;94846.19;;;14.21;31.55
32243;BME280;18731;42.830;24.390;2023-03-13T09:35:25;94857.88;;;14.68;31.22
32243;BME280;18731;42.830;24.390;2023-03-13T09:37:51;94857.50;;;14.54;29.74
32243;BME280;18731;42.830;24.390;2023-03-13T09:40:20;94858.22;;;14.39;28.98
32243;BME280;18731;42.830;24.390;2023-03-13T09:42:49;94855.41;;;14.07;29.28
32243;BME280;18731;42.830;24.390;2023-03-13T09:48:07;94844.94;;;14.58;30.12
32243;BME280;18731;42.830;24.390;2023-03-13T09:50:40;94851.47;;;14.73;29.73
32243;BME280;18731;42.830;24.390;2023-03-13T09:53:33;94860.47;;;14.80;28.44
32243;BME280;18731;42.830;24.390;2023-03-13T09:56:03;94850.88;;;15.11;27.61
32243;BME280;18731;42.830;24.390;2023-03-13T09:58:32;94858.69;;;15.16;28.24
32243;BME280;18731;42.830;24.390;2023-03-13T10:01:04;94851.47;;;15.20;29.31
32243;BME280;18731;42.830;24.390;2023-03-13T10:03:52;94851.81;;;15.34;28.40
32243;BME280;18731;42.830;24.390;2023-03-13T10:06:21;94849.91;;;15.19;26.20
32243;BME280;18731;42.830;24.390;2023-03-13T10:08:48;94844.50;;;15.51;26.59
32243;BME280;18731;42.830;24.390;2023-03-13T10:11:27;94842.47;;;14.97;26.70
32243;BME280;18731;42.830;24.390;2023-03-13T10:14:03;94844.34;;;15.43;25.81
32243;BME280;18731;42.830;24.390;2023-03-13T10:16:54;94842.69;;;15.70;28.24
32243;BME280;18731;42.830;24.390;2023-03-13T10:19:25;94837.94;;;16.18;25.63
32243;BME280;18731;42.830;24.390;2023-03-13T10:21:52;94833.75;;;16.21;26.36
32243;BME280;18731;42.830;24.390;2023-03-13T10:24:29;94819.25;;;16.67;26.04
32243;BME280;18731;42.830;24.390;2023-03-13T10:26:56;94814.94;;;17.09;26.38
32243;BME280;18731;42.830;24.390;2023-03-13T10:29:25;94797.28;;;16.88;24.09
32243;BME280;18731;42.830;24.390;2023-03-13T10:31:58;94809.19;;;17.10;26.28
32243;BME280;18731;42.830;24.390;2023-03-13T10:34:29;94800.41;;;17.40;26.59
32243;BME280;18731;42.830;24.390;2023-03-13T10:37:11;94796.13;;;17.39;23.82
32243;BME280;18731;42.830;24.390;2023-03-13T10:39:38;94795.31;;;17.61;23.65
32243;BME280;18731;42.830;24.390;2023-03-13T10:42:09;94793.56;;;18.02;24.32
32243;BME280;18731;42.830;24.390;2023-03-13T10:44:36;94790.44;;;18.30;22.06
32243;BME280;18731;42.830;24.390;2023-03-13T10:47:03;94788.66;;;17.81;22.40
32243;BME280;18731;42.830;24.390;2023-03-13T10:49:31;94794.88;;;17.85;23.91
32243;BME280;18731;42.830;24.390;2023-03-13T10:52:03;94781.19;;;17.45;23.18
32243;BME280;18731;42.830;24.390;2023-03-13T10:54:34;94783.69;;;17.57;24.31
32243;BME280;18731;42.830;24.390;2023-03-13T10:59:48;94773.41;;;17.96;24.96
32243;BME280;18731;42.830;24.390;2023-03-13T11:02:35;94770.94;;;18.47;23.97
32243;BME280;18731;42.830;24.390;2023-03-13T11:07:49;94768.19;;;18.81;22.45
32243;BME280;18731;42.830;24.390;2023-03-13T11:10:22;94764.19;;;18.68;22.41
32243;BME280;18731;42.830;24.390;2023-03-13T11:12:51;94754.91;;;18.65;24.03
32243;BME280;18731;42.830;24.390;2023-03-13T11:15:44;94751.28;;;18.91;23.07
32243;BME280;18731;42.830;24.390;2023-03-13T11:18:35;94748.41;;;19.21;22.58
32243;BME280;18731;42.830;24.390;2023-03-13T11:21:04;94739.56;;;19.27;24.25
32243;BME280;18731;42.830;24.390;2023-03-13T11:23:39;94727.78;;;19.57;23.19
32243;BME280;18731;42.830;24.390;2023-03-13T11:31:29;94727.78;;;19.61;24.12
32243;BME280;18731;42.830;24.390;2023-03-13T11:37:11;94711.03;;;20.35;22.97
32243;BME280;18731;42.830;24.390;2023-03-13T11:42:49;94713.19;;;19.86;20.28
32243;BME280;18731;42.830;24.390;2023-03-13T11:48:16;94702.47;;;20.15;20.94
32243;BME280;18731;42.830;24.390;2023-03-13T11:50:57;94707.78;;;19.86;20.64
32243;BME280;18731;42.830;24.390;2023-03-13T11:56:40;94697.31;;;19.78;21.71
32243;BME280;18731;42.830;24.390;2023-03-13T12:01:52;94690.25;;;18.97;22.47
32243;BME280;18731;42.830;24.390;2023-03-13T12:04:33;94697.22;;;18.98;23.06
32243;BME280;18731;42.830;24.390;2023-03-13T12:07:20;94695.69;;;19.01;22.60
32243;BME280;18731;42.830;24.390;2023-03-13T12:09:59;94688.81;;;19.10;22.79
32243;BME280;18731;42.830;24.390;2023-03-13T12:20:51;94680.31;;;19.12;21.07
32243;BME280;18731;42.830;24.390;2023-03-13T12:26:18;94675.81;;;19.37;21.28
32243;BME280;18731;42.830;24.390;2023-03-13T12:28:56;94669.88;;;19.14;20.84
32243;BME280;18731;42.830;24.390;2023-03-13T12:42:35;94664.03;;;19.77;21.69
32243;BME280;18731;42.830;24.390;2023-03-13T12:45:17;94663.72;;;20.11;20.62
32243;BME280;18731;42.830;24.390;2023-03-13T12:54:08;94663.31;;;20.02;20.52
32243;BME280;18731;42.830;24.390;2023-03-13T13:01:54;94657.66;;;20.89;19.15
32243;BME280;18731;42.830;24.390;2023-03-13T13:04:23;94660.75;;;20.87;19.56
32243;BME280;18731;42.830;24.390;2023-03-13T13:07:00;94653.63;;;19.94;18.81
32243;BME280;18731;42.830;24.390;2023-03-13T13:09:36;94652.94;;;20.32;20.18
32243;BME280;18731;42.830;24.390;2023-03-13T13:12:19;94655.25;;;20.30;21.40
32243;BME280;18731;42.830;24.390;2023-03-13T13:19:43;94652.97;;;21.25;19.09
32243;BME280;18731;42.830;24.390;2023-03-13T13:32:47;94659.09;;;20.18;20.08
32243;BME280;18731;42.830;24.390;2023-03-13T13:37:45;94645.25;;;19.33;20.67
32243;BME280;18731;42.830;24.390;2023-03-13T13:47:51;94647.00;;;18.97;23.09
32243;BME280;18731;42.830;24.390;2023-03-13T13:50:36;94643.94;;;19.02;22.52
32243;BME280;18731;42.830;24.390;2023-03-13T13:53:31;94644.88;;;19.35;22.92
32243;BME280;18731;42.830;24.390;2023-03-13T13:55:57;94650.31;;;19.42;22.06
32243;BME280;18731;42.830;24.390;2023-03-13T13:58:29;94644.34;;;19.95;21.72
32243;BME280;18731;42.830;24.390;2023-03-13T14:01:00;94640.97;;;20.51;21.46
32243;BME280;18731;42.830;24.390;2023-03-13T14:03:32;94630.09;;;20.97;21.34
32243;BME280;18731;42.830;24.390;2023-03-13T14:06:09;94632.06;;;20.86;21.38
32243;BME280;18731;42.830;24.390;2023-03-13T14:08:39;94630.50;;;20.92;22.13
32243;BME280;18731;42.830;24.390;2023-03-13T14:14:22;94628.19;;;20.94;23.32
32243;BME280;18731;42.830;24.390;2023-03-13T14:16:50;94634.38;;;20.55;21.79
32243;BME280;18731;42.830;24.390;2023-03-13T14:19:23;94636.66;;;20.25;23.66
32243;BME280;18731;42.830;24.390;2023-03-13T14:21:50;94632.72;;;19.83;24.36
32243;BME280;18731;42.830;24.390;2023-03-13T14:24:16;94642.84;;;19.17;23.67
32243;BME280;18731;42.830;24.390;2023-03-13T14:26:43;94636.97;;;19.01;25.23
32243;BME280;18731;42.830;24.390;2023-03-13T14:29:16;94640.91;;;19.14;23.62
32243;BME280;18731;42.830;24.390;2023-03-13T14:31:50;94636.16;;;18.93;24.67
32243;BME280;18731;42.830;24.390;2023-03-13T14:34:16;94634.56;;;18.85;24.39
32243;BME280;18731;42.830;24.390;2023-03-13T14:37:00;94642.13;;;18.62;24.71
32243;BME280;18731;42.830;24.390;2023-03-13T14:42:01;94639.13;;;17.93;25.96
32243;BME280;18731;42.830;24.390;2023-03-13T14:44:30;94638.50;;;17.40;25.95
32243;BME280;18731;42.830;24.390;2023-03-13T14:46:59;94629.34;;;16.38;27.99
32243;BME280;18731;42.830;24.390;2023-03-13T14:49:29;94631.00;;;15.20;29.47
32243;BME280;18731;42.830;24.390;2023-03-13T14:52:03;94626.84;;;14.37;30.90
32243;BME280;18731;42.830;24.390;2023-03-13T14:57:24;94641.44;;;12.56;34.45
32243;BME280;18731;42.830;24.390;2023-03-13T14:59:52;94631.59;;;11.99;36.17
32243;BME280;18731;42.830;24.390;2023-03-13T15:02:36;94640.53;;;11.70;35.99
32243;BME280;18731;42.830;24.390;2023-03-13T15:05:05;94649.22;;;11.34;37.29
32243;BME280;18731;42.830;24.390;2023-03-13T15:07:51;94648.00;;;11.11;35.97
32243;BME280;18731;42.830;24.390;2023-03-13T15:12:46;94660.44;;;10.65;36.90
32243;BME280;18731;42.830;24.390;2023-03-13T15:15:12;94663.59;;;10.58;38.82
32243;BME280;18731;42.830;24.390;2023-03-13T15:17:38;94661.22;;;10.27;39.74
32243;BME280;18731;42.830;24.390;2023-03-13T15:20:04;94668.41;;;10.36;39.38
32243;BME280;18731;42.830;24.390;2023-03-13T15:22:40;94654.47;;;10.30;41.02
32243;BME280;18731;42.830;24.390;2023-03-13T15:25:17;94673.41;;;10.46;39.88
32243;BME280;18731;42.830;24.390;2023-03-13T15:27:43;94673.09;;;10.39;38.71
32243;BME280;18731;42.830;24.390;2023-03-13T15:30:18;94663.53;;;10.38;38.45
32243;BME280;18731;42.830;24.390;2023-03-13T15:32:44;94674.84;;;10.43;41.21
32243;BME280;18731;42.830;24.390;2023-03-13T15:35:26;94668.78;;;10.25;40.62
32243;BME280;18731;42.830;24.390;2023-03-13T15:37:53;94683.06;;;10.21;41.94
32243;BME280;18731;42.830;24.390;2023-03-13T15:40:19;94673.50;;;10.20;41.56
32243;BME280;18731;42.830;24.390;2023-03-13T15:42:45;94665.69;;;10.06;42.67
32243;BME280;18731;42.830;24.390;2023-03-13T15:45:11;94673.22;;;10.04;41.72
32243;BME280;18731;42.830;24.390;2023-03-13T15:47:37;94677.63;;;10.00;42.72
32243;BME280;18731;42.830;24.390;2023-03-13T15:50:03;94658.84;;;9.88;42.50
32243;BME280;18731;42.830;24.390;2023-03-13T15:52:28;94670.44;;;9.92;42.89
32243;BME280;18731;42.830;24.390;2023-03-13T15:54:55;94669.69;;;9.83;42.20
32243;BME280;18731;42.830;24.390;2023-03-13T15:57:23;94688.16;;;9.96;42.39
32243;BME280;18731;42.830;24.390;2023-03-13T15:59:50;94688.63;;;9.90;42.74
32243;BME280;18731;42.830;24.390;2023-03-13T16:02:19;94686.13;;;9.85;43.46
32243;BME280;18731;42.830;24.390;2023-03-13T16:04:46;94686.47;;;9.75;43.06
32243;BME280;18731;42.830;24.390;2023-03-13T16:07:17;94691.03;;;9.65;44.10
32243;BME280;18731;42.830;24.390;2023-03-13T16:09:44;94688.25;;;9.45;45.53
32243;BME280;18731;42.830;24.390;2023-03-13T16:12:10;94711.13;;;9.37;45.07
32243;BME280;18731;42.830;24.390;2023-03-13T16:14:37;94692.97;;;9.13;44.84
32243;BME280;18731;42.830;24.390;2023-03-13T16:17:14;94704.25;;;9.10;45.83
32243;BME280;18731;42.830;24.390;2023-03-13T16:19:40;94721.63;;;9.08;46.43
32243;BME280;18731;42.830;24.390;2023-03-13T16:22:06;94721.00;;;9.02;46.01
32243;BME280;18731;42.830;24.390;2023-03-13T16:24:31;94723.66;;;8.93;45.60
32243;BME280;18731;42.830;24.390;2023-03-13T16:26:57;94731.78;;;8.88;46.62
32243;BME280;18731;42.830;24.390;2023-03-13T16:29:23;94737.09;;;8.88;46.62
32243;BME280;18731;42.830;24.390;2023-03-13T16:31:50;94742.88;;;8.73;46.68
32243;BME280;18731;42.830;24.390;2023-03-13T16:34:16;94741.59;;;8.70;46.08
32243;BME280;18731;42.830;24.390;2023-03-13T16:36:41;94739.53;;;8.59;46.22
32243;BME280;18731;42.830;24.390;2023-03-13T16:39:13;94737.63;;;8.51;46.12
32243;BME280;18731;42.830;24.390;2023-03-13T16:41:39;94740.91;;;8.48;47.11
32243;BME280;18731;42.830;24.390;2023-03-13T16:44:05;94748.88;;;8.48;47.26
32243;BME280;18731;42.830;24.390;2023-03-13T16:46:34;94744.63;;;8.38;47.62
32243;BME280;18731;42.830;24.390;2023-03-13T16:49:01;94736.38;;;8.17;47.55
32243;BME280;18731;42.830;24.390;2023-03-13T16:51:28;94738.38;;;8.12;48.02
32243;BME280;18731;42.830;24.390;2023-03-13T16:53:55;94735.69;;;8.03;48.09
32243;BME280;18731;42.830;24.390;2023-03-13T16:56:32;94740.16;;;7.94;48.62
32243;BME280;18731;42.830;24.390;2023-03-13T16:59:00;94743.69;;;7.81;48.24
32243;BME280;18731;42.830;24.390;2023-03-13T17:01:26;94734.13;;;7.57;49.62
32243;BME280;18731;42.830;24.390;2023-03-13T17:03:54;94752.44;;;7.59;48.76
32243;BME280;18731;42.830;24.390;2023-03-13T17:06:26;94758.41;;;7.42;49.31
32243;BME280;18731;42.830;24.390;2023-03-13T17:08:53;94755.50;;;7.30;50.16
32243;BME280;18731;42.830;24.390;2023-03-13T17:11:20;94759.63;;;7.22;50.60
32243;BME280;18731;42.830;24.390;2023-03-13T17:13:47;94761.03;;;7.20;50.53
32243;BME280;18731;42.830;24.390;2023-03-13T17:16:27;94765.28;;;7.07;51.86
32243;BME280;18731;42.830;24.390;2023-03-13T17:18:53;94767.97;;;6.93;53.64
32243;BME280;18731;42.830;24.390;2023-03-13T17:21:24;94781.63;;;6.87;53.78
32243;BME280;18731;42.830;24.390;2023-03-13T17:23:51;94776.03;;;6.88;53.73
32243;BME280;18731;42.830;24.390;2023-03-13T17:26:21;94783.78;;;6.85;53.66
32243;BME280;18731;42.830;24.390;2023-03-13T17:28:48;94780.47;;;6.79;53.54
32243;BME280;18731;42.830;24.390;2023-03-13T17:31:15;94798.16;;;6.70;53.80
32243;BME280;18731;42.830;24.390;2023-03-13T17:33:41;94775.97;;;6.52;54.21
32243;BME280;18731;42.830;24.390;2023-03-13T17:36:19;94791.19;;;6.60;54.02
32243;BME280;18731;42.830;24.390;2023-03-13T17:38:48;94796.09;;;6.53;53.80
32243;BME280;18731;42.830;24.390;2023-03-13T17:41:17;94791.75;;;6.43;54.30
32243;BME280;18731;42.830;24.390;2023-03-13T17:43:44;94797.66;;;6.40;53.96
32243;BME280;18731;42.830;24.390;2023-03-13T17:46:21;94791.38;;;6.36;53.73
32243;BME280;18731;42.830;24.390;2023-03-13T17:48:49;94792.72;;;6.34;54.18
32243;BME280;18731;42.830;24.390;2023-03-13T17:51:21;94788.41;;;6.24;54.72
32243;BME280;18731;42.830;24.390;2023-03-13T17:53:48;94795.16;;;6.17;55.26
32243;BME280;18731;42.830;24.390;2023-03-13T17:56:22;94793.56;;;6.02;55.39
32243;BME280;18731;42.830;24.390;2023-03-13T17:58:50;94790.13;;;6.01;54.87
32243;BME280;18731;42.830;24.390;2023-03-13T18:01:19;94794.72;;;5.96;55.63
32243;BME280;18731;42.830;24.390;2023-03-13T18:03:46;94797.22;;;5.87;55.26
32243;BME280;18731;42.830;24.390;2023-03-13T18:06:22;94792.22;;;5.86;55.40
32243;BME280;18731;42.830;24.390;2023-03-13T18:08:50;94792.50;;;5.84;54.94
32243;BME280;18731;42.830;24.390;2023-03-13T18:11:16;94796.81;;;5.80;55.15
32243;BME280;18731;42.830;24.390;2023-03-13T18:13:45;94777.25;;;5.62;55.62
32243;BME280;18731;42.830;24.390;2023-03-13T18:18:41;94781.97;;;5.65;55.22
32243;BME280;18731;42.830;24.390;2023-03-13T18:21:07;94794.84;;;5.53;56.73
32243;BME280;18731;42.830;24.390;2023-03-13T18:23:32;94782.13;;;5.17;58.05
32243;BME280;18731;42.830;24.390;2023-03-13T18:25:58;94798.00;;;5.17;58.16
32243;BME280;18731;42.830;24.390;2023-03-13T18:28:24;94796.69;;;5.15;58.15
32243;BME280;18731;42.830;24.390;2023-03-13T18:30:49;94791.25;;;5.06;58.38
32243;BME280;18731;42.830;24.390;2023-03-13T18:33:15;94799.34;;;4.96;58.61
32243;BME280;18731;42.830;24.390;2023-03-13T18:35:40;94794.75;;;4.83;59.34
32243;BME280;18731;42.830;24.390;2023-03-13T18:38:08;94795.38;;;4.75;58.07
32243;BME280;18731;42.830;24.390;2023-03-13T18:40:35;94790.53;;;4.82;58.23
32243;BME280;18731;42.830;24.390;2023-03-13T18:43:00;94785.81;;;4.79;58.50
32243;BME280;18731;42.830;24.390;2023-03-13T18:45:26;94787.94;;;4.77;58.02
32243;BME280;18731;42.830;24.390;2023-03-13T18:47:52;94789.34;;;4.69;58.32